Time;durP1;ratioP1;P1;durP2;ratioP2;P2;SDS_P1;SDS_P2;PMS_P1;PMS_P2;Temp;Humidity;BMP_temperature;BMP_pressure;BME280_temperature;BME280_humidity;BME280_pressure;Samples;Min_cycle;Max_cycle;Signal;HPM_P1;HPM_P2
2023/06/16 00:01:25;;;;;;;5.78;4.15;;;18.60;88.60;;;;;;5012599;28;20041;-69
2023/06/16 00:03:51;;;;;;;6.18;3.90;;;18.60;88.70;;;;;;5025818;28;20049;-69
2023/06/16 00:06:19;;;;;;;5.63;3.63;;;18.50;88.80;;;;;;5025067;28;20100;-70
2023/06/16 00:08:54;;;;;;;6.18;4.03;;;18.50;88.90;;;;;;5005186;28;20510;-69
2023/06/16 00:11:20;;;;;;;5.50;3.83;;;18.50;89.80;;;;;;5004734;28;20108;-69
2023/06/16 00:13:47;;;;;;;4.93;3.63;;;18.30;89.50;;;;;;5006140;28;20041;-69
2023/06/16 00:16:14;;;;;;;7.75;4.22;;;18.40;89.70;;;;;;5003036;28;20129;-69
2023/06/16 00:18:43;;;;;;;9.20;5.15;;;18.40;90.00;;;;;;5006333;28;20045;-70
2023/06/16 00:21:19;;;;;;;7.38;4.32;;;18.30;90.00;;;;;;5005787;28;20601;-69
2023/06/16 00:23:45;;;;;;;6.82;4.45;;;18.40;90.10;;;;;;5006099;28;20085;-69
2023/06/16 00:26:11;;;;;;;7.82;4.13;;;18.30;90.10;;;;;;5004288;28;20037;-69
2023/06/16 00:28:38;;;;;;;5.80;4.25;;;18.30;90.20;;;;;;5004453;28;20096;-69
2023/06/16 00:31:04;;;;;;;7.25;4.15;;;18.30;90.20;;;;;;5003502;28;20443;-69
2023/06/16 00:33:30;;;;;;;6.25;3.90;;;18.30;90.20;;;;;;5003867;28;20054;-71
2023/06/16 00:35:56;;;;;;;4.90;3.83;;;18.20;90.30;;;;;;5004527;28;20096;-69
2023/06/16 00:38:21;;;;;;;5.93;3.85;;;18.20;90.20;;;;;;5005585;28;20037;-69
2023/06/16 00:40:47;;;;;;;6.10;3.92;;;18.20;90.60;;;;;;5005368;28;20117;-69
2023/06/16 00:43:12;;;;;;;6.97;4.40;;;18.20;90.40;;;;;;4998575;28;20082;-69
2023/06/16 00:45:38;;;;;;;5.60;3.90;;;18.10;90.30;;;;;;4989434;28;20041;-69
2023/06/16 00:48:05;;;;;;;7.72;3.90;;;18.10;90.40;;;;;;5004236;28;20038;-69
2023/06/16 00:50:32;;;;;;;7.00;4.38;;;18.10;90.50;;;;;;5005721;28;20041;-70
2023/06/16 00:52:58;;;;;;;5.13;3.97;;;18.00;90.50;;;;;;5005599;28;20136;-69
2023/06/16 00:55:24;;;;;;;5.82;3.85;;;18.00;90.60;;;;;;5004645;28;20121;-69
2023/06/16 00:57:51;;;;;;;5.93;3.75;;;18.00;90.70;;;;;;5004988;28;20804;-69
2023/06/16 01:00:17;;;;;;;5.40;4.40;;;18.00;90.70;;;;;;5004297;28;20040;-69
2023/06/16 01:02:46;;;;;;;6.85;4.22;;;17.90;90.70;;;;;;5023139;28;20116;-69
2023/06/16 01:05:16;;;;;;;6.85;3.80;;;17.90;90.80;;;;;;5019083;28;20053;-69
2023/06/16 01:08:11;;;;;;;8.45;4.90;;;17.90;90.80;;;;;;5004835;28;20081;-69
2023/06/16 01:10:55;;;;;;;5.47;3.70;;;17.90;91.70;;;;;;4999387;28;20050;-69
2023/06/16 01:13:30;;;;;;;4.70;3.53;;;17.80;91.40;;;;;;5004597;28;20100;-69
2023/06/16 01:15:59;;;;;;;6.00;3.55;;;17.80;91.10;;;;;;5002944;28;20041;-69
2023/06/16 01:18:27;;;;;;;7.60;4.05;;;17.80;91.20;;;;;;5005414;28;20042;-69
2023/06/16 01:20:59;;;;;;;6.32;4.47;;;17.80;91.10;;;;;;5003675;28;20033;-69
2023/06/16 01:24:05;;;;;;;6.15;4.03;;;17.70;91.20;;;;;;5005206;28;20042;-69
2023/06/16 01:26:34;;;;;;;7.80;5.22;;;17.70;92.40;;;;;;5003859;28;20081;-69
2023/06/16 01:29:03;;;;;;;5.20;3.95;;;17.70;91.20;;;;;;5004826;28;20038;-71
2023/06/16 01:31:31;;;;;;;8.52;4.75;;;17.70;91.30;;;;;;5004023;28;20045;-69
2023/06/16 01:33:58;;;;;;;5.97;3.63;;;17.70;91.30;;;;;;5004990;28;20702;-69
2023/06/16 01:36:25;;;;;;;10.80;4.05;;;17.70;91.30;;;;;;5003551;28;20065;-69
2023/06/16 01:38:51;;;;;;;11.27;4.70;;;17.70;91.30;;;;;;5003803;28;20047;-69
2023/06/16 01:41:19;;;;;;;8.00;4.78;;;17.70;91.40;;;;;;5004251;28;20115;-69
2023/06/16 01:43:46;;;;;;;8.30;4.88;;;17.60;91.40;;;;;;5003604;28;20053;-69
2023/06/16 01:46:12;;;;;;;6.40;4.15;;;17.60;91.50;;;;;;5003256;28;20528;-70
2023/06/16 01:48:38;;;;;;;10.20;5.10;;;17.60;91.50;;;;;;5004507;28;20103;-69
2023/06/16 01:51:04;;;;;;;7.47;4.60;;;17.50;91.50;;;;;;5004647;28;20041;-69
2023/06/16 01:53:30;;;;;;;7.07;4.78;;;17.50;91.60;;;;;;5003126;28;20050;-70
2023/06/16 01:55:56;;;;;;;8.52;4.10;;;17.50;91.60;;;;;;5003915;28;20045;-69
2023/06/16 01:58:24;;;;;;;7.30;4.40;;;17.50;91.80;;;;;;5003745;28;20416;-69
2023/06/16 02:00:55;;;;;;;8.13;4.30;;;17.40;91.80;;;;;;5006074;28;20757;-69
2023/06/16 02:03:29;;;;;;;9.35;4.75;;;17.40;91.90;;;;;;5027584;28;20455;-69
2023/06/16 02:05:56;;;;;;;5.97;4.72;;;17.40;92.40;;;;;;5014292;28;20050;-69
2023/06/16 02:08:27;;;;;;;7.55;4.68;;;17.30;92.00;;;;;;5008028;28;20085;-69
2023/06/16 02:10:54;;;;;;;7.10;4.75;;;17.30;92.20;;;;;;5008402;28;20412;-70
2023/06/16 02:13:20;;;;;;;9.27;4.40;;;17.20;92.10;;;;;;5006850;28;20046;-69
2023/06/16 02:15:46;;;;;;;7.72;4.65;;;17.20;92.40;;;;;;5005843;28;20034;-69
2023/06/16 02:18:12;;;;;;;6.53;4.50;;;17.20;92.50;;;;;;5007834;28;20503;-70
2023/06/16 02:20:38;;;;;;;5.50;4.28;;;17.10;92.50;;;;;;5008363;28;20034;-69
2023/06/16 02:23:04;;;;;;;9.90;5.47;;;17.10;92.60;;;;;;5007577;28;20064;-69
2023/06/16 02:25:29;;;;;;;7.85;5.15;;;17.00;92.70;;;;;;5008169;28;20042;-71
2023/06/16 02:27:55;;;;;;;7.20;5.10;;;17.00;92.80;;;;;;5008051;28;20042;-69
2023/06/16 02:30:21;;;;;;;10.02;4.93;;;17.00;92.90;;;;;;5005827;28;20061;-69
2023/06/16 02:32:48;;;;;;;7.47;5.10;;;16.90;92.90;;;;;;5006328;28;20561;-69
2023/06/16 02:35:14;;;;;;;7.07;4.97;;;16.90;93.00;;;;;;4994715;28;20113;-69
2023/06/16 02:37:41;;;;;;;8.13;4.72;;;16.90;93.10;;;;;;4987444;28;20053;-69
2023/06/16 02:40:08;;;;;;;6.70;4.35;;;16.80;93.10;;;;;;4995942;28;20050;-69
2023/06/16 02:42:34;;;;;;;7.75;4.95;;;16.80;93.20;;;;;;4994900;28;20043;-69
2023/06/16 02:45:00;;;;;;;8.13;4.82;;;16.70;93.30;;;;;;5004117;28;20042;-71
2023/06/16 02:47:26;;;;;;;6.15;4.22;;;16.70;93.40;;;;;;5008112;28;20045;-70
2023/06/16 02:49:54;;;;;;;10.07;5.20;;;16.60;93.40;;;;;;5007331;28;20515;-69
2023/06/16 02:52:20;;;;;;;7.95;4.88;;;16.60;93.60;;;;;;5006178;28;20050;-70
2023/06/16 02:54:46;;;;;;;7.07;4.60;;;16.60;93.70;;;;;;5006183;28;20054;-69
2023/06/16 02:57:11;;;;;;;8.70;4.18;;;16.60;93.60;;;;;;5007169;28;20133;-69
2023/06/16 02:59:37;;;;;;;5.82;4.55;;;16.60;93.70;;;;;;5007311;28;20117;-69
2023/06/16 03:02:03;;;;;;;7.78;4.47;;;16.60;93.80;;;;;;5016524;28;20087;-69
2023/06/16 03:04:29;;;;;;;7.13;4.60;;;16.50;93.80;;;;;;5005955;28;20714;-69
2023/06/16 03:06:57;;;;;;;8.85;4.82;;;16.50;93.80;;;;;;5007258;28;20054;-70
2023/06/16 03:09:26;;;;;;;7.82;4.20;;;16.50;93.90;;;;;;5006192;28;20412;-69
2023/06/16 03:11:55;;;;;;;6.72;4.43;;;16.50;93.90;;;;;;5006409;28;20042;-69
2023/06/16 03:14:21;;;;;;;9.70;5.47;;;16.50;93.90;;;;;;5006803;28;20053;-69
2023/06/16 03:16:50;;;;;;;7.30;5.05;;;16.40;94.10;;;;;;5005295;28;20084;-70
2023/06/16 03:19:16;;;;;;;8.35;5.88;;;16.50;94.20;;;;;;5005672;28;20078;-69
2023/06/16 03:21:44;;;;;;;7.40;5.10;;;16.40;94.10;;;;;;5006917;28;20510;-69
2023/06/16 03:24:13;;;;;;;9.30;6.20;;;16.40;94.30;;;;;;5006246;28;20053;-70
2023/06/16 03:26:39;;;;;;;8.55;5.75;;;16.40;94.30;;;;;;5006749;28;20408;-69
2023/06/16 03:29:05;;;;;;;7.90;4.75;;;16.40;94.20;;;;;;5006738;28;20460;-69
2023/06/16 03:31:31;;;;;;;7.35;4.75;;;16.30;94.20;;;;;;5006168;28;20078;-70
2023/06/16 03:33:57;;;;;;;10.13;5.30;;;16.30;94.40;;;;;;5005550;28;20086;-69
2023/06/16 03:36:22;;;;;;;8.02;5.25;;;16.30;94.50;;;;;;5006511;28;20704;-69
2023/06/16 03:38:48;;;;;;;12.43;7.32;;;16.30;94.50;;;;;;5006729;28;20049;-69
2023/06/16 03:41:14;;;;;;;9.48;5.28;;;16.30;94.50;;;;;;5003397;28;20091;-69
2023/06/16 03:43:39;;;;;;;9.32;6.82;;;16.30;94.50;;;;;;4990461;28;20038;-69
2023/06/16 03:46:05;;;;;;;6.65;4.75;;;16.30;94.50;;;;;;5005436;28;20070;-69
2023/06/16 03:48:30;;;;;;;10.85;6.00;;;16.30;94.60;;;;;;5006224;28;20040;-70
2023/06/16 03:50:56;;;;;;;11.13;6.28;;;16.30;94.60;;;;;;5007061;28;20105;-69
2023/06/16 03:53:22;;;;;;;12.20;6.85;;;16.30;94.80;;;;;;5005759;28;20049;-69
2023/06/16 03:55:48;;;;;;;12.48;6.45;;;16.30;94.90;;;;;;4991333;28;20509;-70
2023/06/16 03:58:15;;;;;;;11.20;6.40;;;16.30;94.80;;;;;;4995723;28;20041;-69
2023/06/16 04:00:44;;;;;;;8.70;6.30;;;16.30;94.80;;;;;;5006529;28;20564;-69
2023/06/16 04:03:10;;;;;;;12.00;6.72;;;16.30;94.80;;;;;;5016665;28;20029;-69
2023/06/16 04:05:36;;;;;;;18.98;8.77;;;16.20;94.90;;;;;;5005442;28;20061;-69
2023/06/16 04:08:02;;;;;;;13.30;7.35;;;16.30;95.00;;;;;;5005460;28;20045;-69
2023/06/16 04:10:27;;;;;;;15.23;9.15;;;16.30;95.20;;;;;;5005150;28;20081;-69
2023/06/16 04:12:53;;;;;;;12.88;8.18;;;16.30;95.30;;;;;;5005869;28;20046;-69
2023/06/16 04:15:32;;;;;;;16.35;7.35;;;16.30;95.30;;;;;;5003679;28;20061;-69
2023/06/16 04:17:57;;;;;;;13.85;8.02;;;16.30;96.10;;;;;;4988789;28;20046;-69
2023/06/16 04:20:23;;;;;;;16.48;7.53;;;16.30;95.40;;;;;;5005637;28;20115;-69
2023/06/16 04:22:48;;;;;;;15.63;8.50;;;16.30;95.30;;;;;;5003676;28;20049;-69
2023/06/16 04:25:14;;;;;;;15.93;9.43;;;16.40;95.40;;;;;;5005018;28;20069;-69
2023/06/16 04:27:40;;;;;;;14.52;8.63;;;16.40;95.40;;;;;;5006094;28;20044;-69
2023/06/16 04:30:06;;;;;;;18.33;9.50;;;16.50;95.40;;;;;;5004377;28;20657;-69
2023/06/16 04:32:35;;;;;;;18.27;9.30;;;16.50;95.30;;;;;;5004381;28;20678;-70
2023/06/16 04:35:03;;;;;;;19.48;9.93;;;16.50;95.40;;;;;;5005123;28;20137;-70
2023/06/16 04:37:29;;;;;;;16.63;8.60;;;16.50;95.50;;;;;;5005937;28;20045;-69
2023/06/16 04:39:55;;;;;;;16.67;9.18;;;16.60;95.60;;;;;;5004419;28;20564;-70
2023/06/16 04:42:21;;;;;;;14.88;8.55;;;16.60;95.60;;;;;;5003826;28;20140;-69
2023/06/16 04:44:46;;;;;;;11.52;7.20;;;16.60;95.50;;;;;;5003130;28;20073;-69
2023/06/16 04:47:12;;;;;;;14.57;8.32;;;16.70;95.80;;;;;;5003994;28;20109;-69
2023/06/16 04:49:38;;;;;;;17.98;8.43;;;16.70;95.50;;;;;;5005437;28;20062;-69
2023/06/16 04:52:06;;;;;;;14.88;7.82;;;16.80;95.50;;;;;;5005595;28;20037;-70
2023/06/16 04:54:32;;;;;;;12.75;7.35;;;16.80;95.50;;;;;;5014299;28;20042;-71
2023/06/16 04:56:58;;;;;;;11.13;6.72;;;16.90;95.60;;;;;;5003961;28;20561;-69
2023/06/16 04:59:24;;;;;;;12.95;7.32;;;16.90;95.70;;;;;;5003948;28;20038;-70
2023/06/16 05:01:50;;;;;;;12.43;7.72;;;16.90;95.60;;;;;;5004271;28;20104;-69
2023/06/16 05:04:17;;;;;;;12.43;7.30;;;16.90;95.40;;;;;;4990748;28;20038;-69
2023/06/16 05:06:43;;;;;;;14.65;7.85;;;16.90;95.40;;;;;;5003678;28;20053;-69
2023/06/16 05:09:09;;;;;;;11.98;6.40;;;16.90;95.40;;;;;;5004059;28;20108;-69
2023/06/16 05:11:34;;;;;;;9.75;6.35;;;17.00;95.40;;;;;;4987051;28;20096;-69
2023/06/16 05:14:00;;;;;;;9.13;5.97;;;16.90;95.50;;;;;;5004733;28;20042;-71
2023/06/16 05:16:26;;;;;;;9.45;6.30;;;17.00;95.40;;;;;;5003248;28;20091;-69
2023/06/16 05:18:51;;;;;;;10.07;5.53;;;17.00;95.30;;;;;;5003576;28;20506;-69
2023/06/16 05:21:24;;;;;;;8.02;4.80;;;17.00;95.30;;;;;;5004124;28;20034;-69
2023/06/16 05:23:51;;;;;;;10.20;5.55;;;17.10;95.30;;;;;;5004216;28;20045;-69
2023/06/16 05:26:17;;;;;;;8.93;5.68;;;17.10;95.30;;;;;;5002443;28;20400;-69
2023/06/16 05:28:42;;;;;;;12.23;5.80;;;17.10;95.20;;;;;;5002216;28;20080;-69
2023/06/16 05:31:08;;;;;;;12.30;5.72;;;17.20;95.20;;;;;;4995580;28;20026;-70
2023/06/16 05:33:33;;;;;;;9.48;5.68;;;17.20;95.10;;;;;;5000675;28;20099;-70
2023/06/16 05:35:59;;;;;;;10.23;6.38;;;17.20;95.10;;;;;;4998074;28;20511;-70
2023/06/16 05:38:25;;;;;;;9.73;5.93;;;17.20;95.10;;;;;;5002512;28;20366;-71
2023/06/16 05:40:51;;;;;;;11.10;5.65;;;17.30;95.00;;;;;;5003715;28;20069;-70
2023/06/16 05:43:16;;;;;;;10.45;5.50;;;17.40;95.10;;;;;;5007672;28;20536;-71
2023/06/16 05:45:42;;;;;;;9.00;5.32;;;17.40;95.00;;;;;;4996321;28;20560;-71
2023/06/16 05:48:07;;;;;;;10.07;6.35;;;17.40;95.10;;;;;;5000748;28;20077;-71
2023/06/16 05:50:33;;;;;;;10.35;6.00;;;17.40;95.00;;;;;;5003433;28;20415;-70
2023/06/16 05:52:58;;;;;;;12.48;5.30;;;17.50;95.10;;;;;;5002981;28;20045;-70
2023/06/16 05:55:24;;;;;;;10.25;5.00;;;17.50;95.00;;;;;;5003443;28;20049;-69
2023/06/16 05:57:50;;;;;;;7.50;5.35;;;17.50;95.00;;;;;;5002307;28;20503;-69
2023/06/16 06:00:16;;;;;;;8.55;5.47;;;17.50;95.20;;;;;;5002458;28;20053;-70
2023/06/16 06:02:41;;;;;;;9.40;5.63;;;17.60;95.10;;;;;;5020840;28;20125;-70
2023/06/16 06:05:07;;;;;;;7.65;5.63;;;17.60;95.50;;;;;;5021171;28;20128;-70
2023/06/16 06:07:33;;;;;;;10.68;5.45;;;17.70;95.10;;;;;;4991880;28;20050;-69
2023/06/16 06:09:58;;;;;;;10.50;5.03;;;17.70;95.10;;;;;;5002797;28;20739;-70
2023/06/16 06:12:24;;;;;;;9.00;5.47;;;17.70;94.80;;;;;;5003962;28;20038;-69
2023/06/16 06:14:50;;;;;;;7.80;4.93;;;17.70;94.90;;;;;;4995246;28;20488;-70
2023/06/16 06:17:15;;;;;;;6.15;4.78;;;17.70;94.80;;;;;;4984607;28;20038;-70
2023/06/16 06:19:41;;;;;;;7.22;4.35;;;17.80;94.70;;;;;;5002299;28;20152;-70
2023/06/16 06:22:06;;;;;;;6.00;4.07;;;17.80;94.50;;;;;;4985569;28;20057;-70
2023/06/16 06:24:32;;;;;;;7.15;3.85;;;17.90;94.30;;;;;;5001913;28;20129;-70
2023/06/16 06:26:58;;;;;;;8.77;4.82;;;17.90;94.20;;;;;;5004300;28;20053;-70
2023/06/16 06:29:23;;;;;;;7.18;5.10;;;17.90;94.20;;;;;;5003300;28;20061;-70
2023/06/16 06:31:49;;;;;;;7.22;4.65;;;17.90;94.20;;;;;;4985851;28;20876;-69
2023/06/16 06:34:15;;;;;;;7.70;4.38;;;18.00;94.50;;;;;;5001806;28;20054;-70
2023/06/16 06:36:41;;;;;;;6.63;4.03;;;18.00;94.50;;;;;;5002864;28;20046;-70
2023/06/16 06:39:08;;;;;;;9.43;5.22;;;18.10;94.60;;;;;;5003901;28;20041;-69
2023/06/16 06:41:34;;;;;;;6.22;3.92;;;18.10;94.60;;;;;;5002537;28;20048;-70
2023/06/16 06:44:00;;;;;;;6.70;4.60;;;18.10;94.60;;;;;;5003492;28;20042;-71
2023/06/16 06:46:26;;;;;;;13.77;4.03;;;18.20;94.40;;;;;;5003943;28;20104;-69
2023/06/16 06:48:51;;;;;;;5.32;4.28;;;18.20;94.30;;;;;;5006234;28;20049;-69
2023/06/16 06:51:17;;;;;;;6.75;4.07;;;18.20;94.30;;;;;;5005719;28;20056;-70
2023/06/16 06:53:43;;;;;;;7.65;3.72;;;18.30;94.40;;;;;;5007412;28;20072;-70
2023/06/16 06:56:09;;;;;;;7.65;4.75;;;18.30;94.30;;;;;;5003903;28;20049;-71
2023/06/16 06:58:35;;;;;;;6.55;4.15;;;18.40;94.20;;;;;;5006299;28;20137;-71
2023/06/16 07:01:01;;;;;;;5.50;4.25;;;18.40;94.40;;;;;;5008100;28;20120;-71
2023/06/16 07:03:27;;;;;;;5.60;4.13;;;18.40;94.40;;;;;;5008533;28;20037;-71
2023/06/16 07:05:53;;;;;;;5.53;4.00;;;18.50;94.50;;;;;;5005207;28;20073;-71
2023/06/16 07:08:19;;;;;;;5.53;3.58;;;18.50;94.50;;;;;;5004859;28;20732;-71
2023/06/16 07:10:44;;;;;;;7.80;3.70;;;18.50;94.50;;;;;;5008843;28;20033;-71
2023/06/16 07:13:10;;;;;;;4.57;3.33;;;18.60;94.20;;;;;;4988436;28;20038;-71
2023/06/16 07:15:36;;;;;;;5.13;3.30;;;18.60;94.20;;;;;;4985104;28;20034;-71
2023/06/16 07:18:01;;;;;;;4.70;3.38;;;18.70;94.10;;;;;;5004564;28;20512;-71
2023/06/16 07:20:27;;;;;;;5.20;3.72;;;18.70;93.90;;;;;;5005849;28;20562;-71
2023/06/16 07:22:53;;;;;;;4.57;3.40;;;18.70;93.80;;;;;;5005395;28;20038;-71
2023/06/16 07:25:19;;;;;;;4.00;3.13;;;18.70;93.80;;;;;;5005649;28;20041;-71
2023/06/16 07:27:44;;;;;;;6.53;4.22;;;18.70;93.80;;;;;;5005275;28;20385;-71
2023/06/16 07:30:10;;;;;;;6.93;4.03;;;18.70;93.60;;;;;;5005460;28;20048;-71
2023/06/16 07:32:37;;;;;;;8.43;3.80;;;18.80;93.50;;;;;;5005421;28;20058;-71
2023/06/16 07:35:03;;;;;;;3.95;2.83;;;18.80;93.50;;;;;;5006168;28;20042;-71
2023/06/16 07:37:28;;;;;;;5.18;3.78;;;18.90;93.60;;;;;;5005920;28;20135;-71
2023/06/16 07:39:54;;;;;;;4.70;3.15;;;18.90;93.00;;;;;;5005409;28;20050;-71
2023/06/16 07:42:20;;;;;;;6.18;3.25;;;18.90;93.00;;;;;;5006215;28;20046;-71
2023/06/16 07:44:46;;;;;;;8.27;3.33;;;19.00;93.10;;;;;;5004163;28;20053;-71
2023/06/16 07:47:11;;;;;;;3.35;2.35;;;19.00;92.90;;;;;;5006001;28;20103;-72
2023/06/16 07:49:37;;;;;;;4.07;2.72;;;19.00;92.70;;;;;;5000626;28;20050;-71
2023/06/16 07:52:03;;;;;;;4.35;2.83;;;19.10;92.40;;;;;;5005590;28;20455;-71
2023/06/16 07:54:29;;;;;;;4.68;2.42;;;19.10;92.30;;;;;;5006627;28;20052;-71
2023/06/16 07:56:55;;;;;;;5.50;3.67;;;19.10;91.90;;;;;;5006220;28;20038;-71
2023/06/16 07:59:20;;;;;;;4.65;2.45;;;19.20;91.80;;;;;;5004576;28;20095;-71
2023/06/16 08:01:46;;;;;;;2.53;1.60;;;19.20;91.90;;;;;;5004286;28;20387;-71
2023/06/16 08:04:12;;;;;;;2.55;1.38;;;19.20;91.50;;;;;;5005584;28;20049;-71
2023/06/16 08:06:39;;;;;;;4.05;2.10;;;19.20;90.80;;;;;;5005476;28;20054;-71
2023/06/16 08:09:07;;;;;;;2.38;2.03;;;19.20;91.00;;;;;;5006131;28;20121;-71
2023/06/16 08:11:34;;;;;;;3.20;2.35;;;19.30;91.10;;;;;;5004046;28;20037;-71
2023/06/16 08:14:00;;;;;;;3.08;1.83;;;19.20;91.10;;;;;;5002909;28;20054;-71
2023/06/16 08:16:26;;;;;;;3.55;2.10;;;19.30;91.10;;;;;;5004127;28;20052;-71
2023/06/16 08:18:55;;;;;;;4.63;1.98;;;19.30;91.00;;;;;;5005769;28;20067;-71
2023/06/16 08:21:20;;;;;;;2.42;1.88;;;19.40;90.80;;;;;;5005091;28;20501;-71
2023/06/16 08:23:47;;;;;;;2.15;1.50;;;19.40;90.50;;;;;;5005059;28;20042;-71
2023/06/16 08:26:12;;;;;;;3.17;1.63;;;19.40;90.20;;;;;;5005072;28;20042;-71
2023/06/16 08:28:40;;;;;;;1.77;1.50;;;19.40;90.10;;;;;;5003701;28;20176;-72
2023/06/16 08:31:06;;;;;;;2.28;1.60;;;19.50;89.80;;;;;;5003846;28;20378;-71
2023/06/16 08:33:32;;;;;;;3.20;1.95;;;19.50;89.10;;;;;;5004273;28;20058;-71
2023/06/16 08:35:58;;;;;;;1.85;1.70;;;19.50;88.90;;;;;;5005566;28;20042;-71
2023/06/16 08:38:24;;;;;;;2.10;1.60;;;19.50;88.90;;;;;;5004538;28;20092;-71
2023/06/16 08:40:49;;;;;;;2.15;1.67;;;19.60;88.70;;;;;;5003739;28;20116;-71
2023/06/16 08:43:16;;;;;;;2.45;1.52;;;19.60;88.20;;;;;;5004606;28;20038;-71
2023/06/16 08:45:44;;;;;;;1.70;1.15;;;19.60;88.40;;;;;;5002521;28;20046;-71
2023/06/16 08:48:11;;;;;;;2.88;1.42;;;19.70;87.40;;;;;;5004843;28;20054;-71
2023/06/16 08:50:38;;;;;;;2.10;1.50;;;19.70;87.70;;;;;;5005261;28;20050;-71
2023/06/16 08:53:08;;;;;;;1.40;1.15;;;19.70;88.00;;;;;;5004482;28;20117;-71
2023/06/16 08:55:40;;;;;;;1.67;1.48;;;19.80;87.10;;;;;;5003526;28;20133;-72
2023/06/16 08:58:11;;;;;;;2.20;1.57;;;19.80;86.40;;;;;;5003165;28;20053;-71
2023/06/16 09:00:39;;;;;;;2.97;1.60;;;19.80;86.60;;;;;;5003123;28;20589;-71
2023/06/16 09:03:08;;;;;;;1.83;1.13;;;19.80;86.30;;;;;;5022865;28;20446;-71
2023/06/16 09:05:36;;;;;;;2.30;1.33;;;19.80;86.00;;;;;;5015347;28;20104;-72
2023/06/16 09:08:05;;;;;;;1.63;1.30;;;19.80;85.90;;;;;;5003084;28;20049;-72
2023/06/16 09:10:31;;;;;;;1.77;1.30;;;19.80;85.20;;;;;;5004165;28;20204;-72
2023/06/16 09:13:00;;;;;;;1.08;0.98;;;19.80;85.10;;;;;;5004797;28;20046;-71
2023/06/16 09:15:25;;;;;;;1.38;1.20;;;19.90;84.30;;;;;;5004394;28;20042;-71
2023/06/16 09:17:52;;;;;;;3.55;1.60;;;19.90;84.70;;;;;;5003281;28;20049;-71
2023/06/16 09:20:19;;;;;;;2.90;1.13;;;19.90;82.50;;;;;;5002513;28;20091;-71
2023/06/16 09:22:49;;;;;;;1.42;1.10;;;19.90;83.90;;;;;;5003847;28;20042;-71
2023/06/16 09:25:16;;;;;;;1.88;1.33;;;19.90;83.20;;;;;;5002834;28;20061;-71
2023/06/16 09:27:45;;;;;;;2.97;1.40;;;20.00;84.20;;;;;;5002617;28;20081;-71
2023/06/16 09:30:16;;;;;;;1.50;0.95;;;20.00;82.90;;;;;;5001740;28;20092;-71
2023/06/16 09:32:42;;;;;;;2.50;1.20;;;20.00;83.10;;;;;;5002624;28;20413;-71
2023/06/16 09:35:16;;;;;;;1.83;1.27;;;20.10;83.60;;;;;;5003486;28;20286;-72
2023/06/16 09:37:42;;;;;;;3.33;1.40;;;20.10;81.00;;;;;;5004116;28;20045;-71
2023/06/16 09:40:09;;;;;;;3.53;1.58;;;20.20;83.70;;;;;;5003741;28;20504;-71
2023/06/16 09:42:37;;;;;;;1.55;1.40;;;20.20;82.70;;;;;;5002172;28;20041;-72
2023/06/16 09:45:08;;;;;;;3.10;1.85;;;20.20;82.20;;;;;;5003450;28;20218;-71
2023/06/16 09:47:37;;;;;;;1.90;1.40;;;20.20;78.80;;;;;;5002503;28;20048;-72
2023/06/16 09:50:06;;;;;;;2.90;1.63;;;20.30;81.50;;;;;;5002566;28;20440;-72
2023/06/16 09:52:36;;;;;;;3.13;1.48;;;20.30;81.90;;;;;;5002470;28;20117;-72
2023/06/16 09:55:02;;;;;;;2.33;1.67;;;20.40;82.30;;;;;;5001948;28;20104;-71
2023/06/16 09:57:28;;;;;;;2.90;1.55;;;20.40;82.20;;;;;;5002606;28;20045;-71
2023/06/16 09:59:54;;;;;;;2.15;1.40;;;20.40;81.90;;;;;;5002091;28;20436;-71
2023/06/16 10:02:23;;;;;;;2.28;1.52;;;20.40;81.80;;;;;;5016831;28;20569;-71
2023/06/16 10:04:53;;;;;;;1.60;1.50;;;20.50;81.80;;;;;;5003713;28;20050;-71
2023/06/16 10:07:19;;;;;;;4.15;1.40;;;20.60;81.50;;;;;;4985932;28;20050;-71
2023/06/16 10:09:48;;;;;;;1.92;1.60;;;20.60;81.70;;;;;;5002115;28;20069;-71
2023/06/16 10:12:15;;;;;;;2.67;1.80;;;20.60;81.40;;;;;;5002430;28;20038;-71
2023/06/16 10:14:42;;;;;;;1.80;1.15;;;20.60;81.30;;;;;;5001501;28;20108;-71
2023/06/16 10:17:10;;;;;;;2.47;1.52;;;20.60;81.20;;;;;;5003071;28;20073;-71
2023/06/16 10:19:39;;;;;;;2.33;1.70;;;20.60;81.30;;;;;;5003665;28;20046;-72
2023/06/16 10:22:05;;;;;;;1.58;1.40;;;20.60;80.70;;;;;;5004954;28;20227;-71
2023/06/16 10:24:31;;;;;;;4.25;1.52;;;20.70;81.20;;;;;;5006009;28;20132;-72
2023/06/16 10:26:58;;;;;;;2.47;1.40;;;20.70;81.10;;;;;;5008023;28;20042;-70
2023/06/16 10:29:25;;;;;;;2.40;2.20;;;20.70;80.90;;;;;;5006501;28;20050;-71
2023/06/16 10:32:08;;;;;;;2.30;1.73;;;20.70;81.20;;;;;;4989620;28;20053;-71
2023/06/16 10:34:35;;;;;;;4.35;1.38;;;20.70;78.10;;;;;;5006179;28;20049;-71
2023/06/16 10:37:01;;;;;;;2.55;1.50;;;20.80;80.80;;;;;;5006909;28;20044;-72
2023/06/16 10:39:27;;;;;;;2.10;1.67;;;20.80;80.50;;;;;;5007316;28;20246;-71
2023/06/16 10:41:55;;;;;;;4.75;1.60;;;20.70;81.20;;;;;;5007240;28;20153;-71
2023/06/16 10:44:31;;;;;;;1.65;1.35;;;20.80;81.20;;;;;;5004202;28;20050;-71
2023/06/16 10:47:10;;;;;;;2.95;1.88;;;20.80;77.30;;;;;;5006315;28;20073;-71
2023/06/16 10:49:50;;;;;;;2.60;1.52;;;20.80;77.30;;;;;;5006866;28;20061;-72
2023/06/16 10:52:17;;;;;;;1.98;1.40;;;20.90;78.30;;;;;;5005762;28;20100;-72
2023/06/16 10:54:51;;;;;;;1.95;1.85;;;20.90;81.00;;;;;;5007163;28;20053;-71
2023/06/16 10:57:16;;;;;;;2.38;1.48;;;20.90;80.50;;;;;;5005560;28;20439;-71
2023/06/16 10:59:54;;;;;;;2.00;1.52;;;20.90;80.00;;;;;;5004858;28;20057;-71
2023/06/16 11:02:28;;;;;;;3.08;1.55;;;20.90;77.90;;;;;;5019834;28;20069;-71
2023/06/16 11:05:07;;;;;;;2.53;1.55;;;21.00;78.40;;;;;;5009416;28;20108;-71
2023/06/16 11:07:47;;;;;;;2.33;1.90;;;21.00;76.10;;;;;;5024856;28;20060;-71
2023/06/16 11:10:18;;;;;;;2.78;1.50;;;21.00;79.70;;;;;;4986982;28;20078;-71
2023/06/16 11:12:45;;;;;;;1.95;1.58;;;21.00;78.90;;;;;;4990668;28;20034;-71
2023/06/16 11:15:11;;;;;;;3.42;1.70;;;21.00;77.90;;;;;;5003933;28;20085;-71
2023/06/16 11:17:36;;;;;;;2.88;1.40;;;21.00;79.40;;;;;;4988857;28;20078;-71
2023/06/16 11:20:06;;;;;;;1.55;1.15;;;21.00;79.70;;;;;;5006546;28;20045;-72
2023/06/16 11:22:32;;;;;;;2.22;1.80;;;21.00;79.40;;;;;;5006727;28;20037;-72
2023/06/16 11:24:59;;;;;;;2.70;1.65;;;21.10;78.40;;;;;;5007202;28;20042;-71
2023/06/16 11:27:25;;;;;;;1.65;1.55;;;21.10;79.00;;;;;;5005549;28;20196;-71
2023/06/16 11:29:54;;;;;;;1.75;1.40;;;21.10;78.60;;;;;;5004776;28;20046;-71
2023/06/16 11:32:24;;;;;;;2.55;1.60;;;21.10;78.70;;;;;;5005748;28;20104;-71
2023/06/16 11:34:57;;;;;;;1.55;1.25;;;21.10;77.80;;;;;;5005968;28;20103;-71
2023/06/16 11:37:43;;;;;;;1.73;1.42;;;21.10;78.70;;;;;;5006202;28;20504;-71
2023/06/16 11:40:08;;;;;;;1.90;1.40;;;21.10;69.20;;;;;;4998375;28;20522;-71
2023/06/16 11:42:35;;;;;;;1.73;1.52;;;21.20;77.60;;;;;;5006214;28;20121;-71
2023/06/16 11:45:00;;;;;;;2.08;1.45;;;21.20;78.30;;;;;;5004888;28;20124;-72
2023/06/16 11:47:26;;;;;;;1.98;1.63;;;21.20;78.20;;;;;;5005117;28;20446;-71
2023/06/16 11:49:52;;;;;;;1.92;1.52;;;21.30;77.30;;;;;;5004800;28;20046;-71
2023/06/16 11:52:18;;;;;;;2.35;1.48;;;21.30;78.00;;;;;;5004433;28;20046;-71
2023/06/16 11:54:43;;;;;;;1.45;1.33;;;21.30;78.10;;;;;;5005663;28;20436;-71
2023/06/16 11:57:09;;;;;;;4.65;1.63;;;21.30;77.80;;;;;;5005552;28;20030;-71
2023/06/16 11:59:35;;;;;;;2.45;1.88;;;21.30;77.40;;;;;;5003351;28;20048;-71
2023/06/16 12:02:03;;;;;;;1.58;1.20;;;21.40;77.30;;;;;;5017672;28;20668;-72
2023/06/16 12:04:31;;;;;;;3.70;1.38;;;21.40;77.10;;;;;;5014531;28;20050;-71
2023/06/16 12:06:57;;;;;;;2.03;1.35;;;21.40;77.30;;;;;;5006503;28;20052;-71
2023/06/16 12:09:35;;;;;;;1.73;1.25;;;21.40;76.40;;;;;;5005198;28;20419;-71
2023/06/16 12:12:02;;;;;;;2.00;1.40;;;21.40;76.90;;;;;;5005472;28;20103;-73
2023/06/16 12:14:28;;;;;;;2.50;1.75;;;21.40;76.70;;;;;;5003181;28;20390;-71
2023/06/16 12:16:56;;;;;;;4.25;1.70;;;21.50;76.90;;;;;;5004384;28;20091;-71
2023/06/16 12:19:22;;;;;;;1.60;1.40;;;21.50;76.80;;;;;;5005265;28;20040;-71
2023/06/16 12:21:53;;;;;;;3.20;1.60;;;21.50;74.80;;;;;;5003810;28;20041;-71
2023/06/16 12:24:22;;;;;;;1.40;1.30;;;21.50;73.80;;;;;;5005383;28;20124;-71
2023/06/16 12:26:51;;;;;;;3.03;1.70;;;21.50;76.20;;;;;;5000905;28;20049;-71
2023/06/16 12:29:17;;;;;;;2.00;1.30;;;21.50;76.50;;;;;;5003739;28;20049;-71
2023/06/16 12:31:56;;;;;;;1.73;1.63;;;21.60;76.60;;;;;;5006421;28;20034;-70
2023/06/16 12:34:35;;;;;;;2.30;1.52;;;21.60;71.20;;;;;;4987546;28;20330;-71
2023/06/16 12:37:07;;;;;;;1.50;1.40;;;21.60;73.90;;;;;;5004619;28;20092;-73
2023/06/16 12:39:33;;;;;;;;;;;21.60;74.30;;;;;;5006624;28;20117;-73
2023/06/16 12:42:02;;;;;;;4.00;1.80;;;21.60;67.00;;;;;;5004097;28;20008;-72
2023/06/16 12:44:45;;;;;;;1.77;1.45;;;21.60;75.00;;;;;;5003021;28;20196;-72
2023/06/16 12:47:15;;;;;;;2.65;1.90;;;21.60;69.80;;;;;;5003979;28;20050;-71